Domov               UVHVVR             MKGP            O straneh              
ZDRAVSTVENO VARSTVO RASTLIN
  MREŽA AGROMET. POSTAJ
 ► PROGNOSTIČNA OBVESTILA
AGROMETEOROLOŠKI PODATKI -
ARSO
OBVLADOVANJE TVEGANJ ZARADI
NEUGODNIH VREMENSKIH RAZMER
  ► NARAVNE NESREČE
  ► SUŠA/MOČA
  ► NAMAKANJE
  ► ŽLED (gozdarstvo)
KARTOGRAFSKI PRIKAZI
SPLETNE POVEZAVE
PROJEKTI IN PUBLIKACIJE

AGROMETEOROLOŠKA MREŽA: VREMENSKE POSTAJE IN FENOLOŠKA OPAZOVANJA

Pregled podatkov za lokacijo Tacen, meteorološka postaja 27389

Pregled senzorjev na lokaciji

ID Ime Zadnja
vrednost
Datum
zadnje
spremembe
Tip
senzorja
2222 Padavine (mm) 0 mm 19.9.2018 05:00 Generic 0.2 mm
2225 Relativna vlaga 2 m (% RH) 99,93 % RH 19.9.2018 05:00 Generic 0 - 100 %
2226 Temperatura 2 m (°C) 12,94 °C 19.9.2018 05:00 Generic -40 - +60 °C
4267 Smer vetra (°) 8,09 ° 19.9.2018 05:00 Generic 0 - 360
4266 Hitrost vetra (km/h) 0,15 km/h 19.9.2018 05:00 Generic 200 km/h

Pregled podatkov zadnjih 24 ur

Zap.
št.
Datum in čas Tacen
Padavine Relativna
vlaga
2
m
Temperatura
2
m
Smer
vetra
Hitrost
vetra
1 19.9.2018 05:30
2 19.9.2018 05:00
3 19.9.2018 04:30
4 19.9.2018 04:00 0 99,9 12,9 8,1 0,1
5 19.9.2018 03:30 0 99,9 13,2 7,4 0,2
6 19.9.2018 03:00 0 99,9 13,4 7,7 0,2
7 19.9.2018 02:30 0 99,9 13,5 12 0,2
8 19.9.2018 02:00 0 99,9 13,7 8,8 0,2
9 19.9.2018 01:30 0 99,9 14 6,7 0,2
10 19.9.2018 01:00 0 99,9 14,2 6,3 0,2
11 19.9.2018 00:30 0 99,9 14,6 7,7 0,2
12 19.9.2018 00:00 0 99,9 14,8 10,2 0,2
13 18.9.2018 23:30 0 99,9 15,1 7 0,2
14 18.9.2018 23:00 0 99,9 15,3 9,2 0,2
15 18.9.2018 22:30 0 99,9 15,6 10,8 0,2
16 18.9.2018 22:00 0 99,6 15,9 9,4 0,2
17 18.9.2018 21:30 0 97,6 16,6 9,1 0,2
18 18.9.2018 21:00 0 95,7 17,3 8,7 0,2
19 18.9.2018 20:30 0 98 17,1 7,9 0,6
20 18.9.2018 20:00 0 95,7 17,5 7,3 0,2
21 18.9.2018 19:30 0 92,8 18,3 4 0,2
22 18.9.2018 19:00 0 90,8 19,1 12,9 0,2
23 18.9.2018 18:30 0 85,8 20,3 7,8 0,2
24 18.9.2018 18:00 0 75,1 22,5 6,6 0,2
25 18.9.2018 17:30 0 59,2 25,8 11,4 0,5
26 18.9.2018 17:00 0 55 26,7 4,4 1
27 18.9.2018 16:30 0 51,9 27,4 15,5 0,6
28 18.9.2018 16:00 0 51,4 27,8 17,3 0,5
29 18.9.2018 15:30 0 50,7 28 17,3 0,6
30 18.9.2018 15:00 0 50,2 28,2 15,2 1,1
31 18.9.2018 14:30 0 52,2 28,4 8,6 0,4
32 18.9.2018 14:00 0 51,7 28,2 12,2 1,1
33 18.9.2018 13:30 0 53,5 27,4 16,8 0,7
34 18.9.2018 13:00 0 54,9 27 11,2 1,3
35 18.9.2018 12:30 0 57 26,5 8,3 1,8
36 18.9.2018 12:00 0 58,7 25,8 26 1
37 18.9.2018 11:30 0 60,1 25,6 27,1 1,1
38 18.9.2018 11:00 0 65,8 24,4 36,5 1,5
39 18.9.2018 10:30 0 74,4 22,8 32,2 0,8
40 18.9.2018 10:00 0 83,2 20,7 37,5 0,9
41 18.9.2018 09:30 0 97,8 17,8 34 0,5
42 18.9.2018 09:00 0 99,9 16,5 32,4 0,4
43 18.9.2018 08:30 0 99,9 16,2 3 0,3
44 18.9.2018 08:00 0 99,9 16 6,9 0,2
45 18.9.2018 07:30 0 99,9 15,7 3,4 0,2
46 18.9.2018 07:00 0 99,9 15,2 17 0,2
47 18.9.2018 06:30 0 99,9 14,8 9,1 0,2
48 18.9.2018 06:00 0 99,9 14,3 8,8 0,2
© 2011 Ministrstvo za kmetijstvo, gozdarstvo in prehrano. Vse pravice pridržane.